Terminal Aerodrome Forecast
Issued by NWS Twin Cities, MN

Home | Current Version | Previous Version | Text Only | Print | Product List | Glossary On
Versions: 1 2 3 4 5 6 7 8 9 10 11 12 13 14
000
FTUS43 KMPX 191720
TAFEAU
TAF
KEAU 191720Z 1918/2018 31006KT P6SM FEW250
     FM200600 00000KT 2SM BR FEW002 SCT025
     FM201100 00000KT 1/2SM FZFG SCT002 SCT015
     FM201400 00000KT P6SM SCT060=

USA.gov is the U.S. government's official web portal to all federal, state and local government web resources and services.